Time;durP1;ratioP1;P1;durP2;ratioP2;P2;SDS_P1;SDS_P2;PMS_P1;PMS_P2;Temp;Humidity;BMP_temperature;BMP_pressure;BME280_temperature;BME280_humidity;BME280_pressure;Samples;Min_cycle;Max_cycle;Signal;HPM_P1;HPM_P2
2024/02/09 00:00:30;;;;;;;6.27;2.10;;;;;;;10.67;100.00;96071.88;5092680;28;20304;-80
2024/02/09 00:02:59;;;;;;;5.20;1.80;;;;;;;10.63;100.00;96070.53;5093164;28;20232;-80
2024/02/09 00:05:25;;;;;;;5.00;2.20;;;;;;;10.60;100.00;96060.28;5093361;28;20641;-80
2024/02/09 00:07:54;;;;;;;3.33;1.73;;;;;;;10.58;100.00;96078.13;5093052;28;20707;-79
2024/02/09 00:10:20;;;;;;;8.27;2.03;;;;;;;10.58;100.00;96075.47;5093077;28;20701;-80
2024/02/09 00:12:48;;;;;;;8.07;2.30;;;;;;;10.55;100.00;96079.25;5093473;28;20642;-79
2024/02/09 00:15:18;;;;;;;5.03;2.00;;;;;;;10.50;100.00;96081.53;5093063;28;20199;-79
2024/02/09 00:17:44;;;;;;;7.13;2.07;;;;;;;10.48;100.00;96072.09;5092816;28;20680;-80
2024/02/09 00:20:12;;;;;;;7.40;2.07;;;;;;;10.47;100.00;96065.16;5092644;28;20212;-80
2024/02/09 00:22:39;;;;;;;5.00;1.97;;;;;;;10.44;100.00;96050.47;5094159;28;20238;-79
2024/02/09 00:25:10;;;;;;;7.00;2.40;;;;;;;10.42;100.00;96051.59;5096588;28;20261;-79
2024/02/09 00:27:36;;;;;;;10.53;2.30;;;;;;;10.38;100.00;96037.88;5096471;28;20293;-79
2024/02/09 00:30:05;;;;;;;4.47;1.97;;;;;;;10.34;100.00;96033.06;5096055;28;20231;-79
2024/02/09 00:32:31;;;;;;;6.87;2.60;;;;;;;10.32;100.00;96033.22;5096163;28;20739;-79
2024/02/09 00:34:58;;;;;;;5.33;2.00;;;;;;;10.31;100.00;96028.94;5096314;28;20205;-80
2024/02/09 00:37:26;;;;;;;6.80;2.23;;;;;;;10.33;100.00;96031.41;5096354;28;20210;-80
2024/02/09 00:39:53;;;;;;;6.20;2.87;;;;;;;10.28;100.00;96025.75;5096369;28;20680;-80
2024/02/09 00:42:21;;;;;;;6.70;2.00;;;;;;;10.28;100.00;96034.50;5096336;28;20226;-79
2024/02/09 00:44:48;;;;;;;6.77;2.00;;;;;;;10.28;100.00;96023.13;5095880;28;20684;-80
2024/02/09 00:47:15;;;;;;;6.77;2.10;;;;;;;10.33;100.00;96018.22;5096162;28;20211;-79
2024/02/09 00:49:43;;;;;;;9.80;2.70;;;;;;;10.23;100.00;96017.47;5096345;28;20208;-80
2024/02/09 00:52:11;;;;;;;7.60;2.47;;;;;;;10.18;100.00;96017.09;5096131;28;20256;-80
2024/02/09 00:54:38;;;;;;;7.93;2.77;;;;;;;10.18;100.00;96012.66;5095789;28;20209;-80
2024/02/09 00:57:05;;;;;;;7.27;2.40;;;;;;;10.18;100.00;96009.19;5095534;28;20210;-80
2024/02/09 00:59:36;;;;;;;5.17;2.60;;;;;;;10.21;100.00;96033.47;5096051;28;20695;-80
2024/02/09 01:02:03;;;;;;;5.53;2.20;;;;;;;10.19;100.00;96016.97;5096032;28;20232;-80
2024/02/09 01:04:30;;;;;;;5.30;2.30;;;;;;;10.21;100.00;96017.63;5095694;28;20306;-80
2024/02/09 01:06:57;;;;;;;4.97;2.43;;;;;;;10.23;100.00;96035.97;5095758;28;20210;-80
2024/02/09 01:09:24;;;;;;;7.83;2.27;;;;;;;10.24;100.00;96027.06;5095533;28;20208;-80
2024/02/09 01:11:50;;;;;;;7.60;2.40;;;;;;;10.23;100.00;96020.13;5095620;28;20233;-80
2024/02/09 02:46:56;;;;;;;5.40;2.10;;;;;;;9.27;100.00;95979.72;5093453;28;20301;-79
2024/02/09 03:05:49;;;;;;;5.40;2.43;;;;;;;9.19;100.00;95942.75;5093625;28;20225;-79
2024/02/09 03:08:16;;;;;;;7.53;2.70;;;;;;;9.19;100.00;95942.75;5093103;28;20217;-79
2024/02/09 03:10:43;;;;;;;6.20;2.33;;;;;;;9.19;100.00;95937.47;5093306;28;20218;-79
2024/02/09 03:13:10;;;;;;;4.97;2.70;;;;;;;9.19;100.00;95933.03;5093236;28;20244;-80
2024/02/09 03:15:37;;;;;;;4.40;1.93;;;;;;;9.21;100.00;95931.09;5093445;28;20203;-80
2024/02/09 03:18:04;;;;;;;6.10;2.20;;;;;;;9.20;100.00;95924.16;5092926;28;20206;-80
2024/02/09 03:20:31;;;;;;;4.07;2.10;;;;;;;9.20;100.00;95928.59;5093347;28;20208;-80
2024/02/09 03:23:01;;;;;;;4.70;2.47;;;;;;;9.18;100.00;95925.28;5093149;28;20236;-79
2024/02/09 03:25:28;;;;;;;8.37;2.13;;;;;;;9.19;100.00;95922.47;5093123;28;20236;-79
2024/02/09 03:27:56;;;;;;;4.03;2.10;;;;;;;9.19;100.00;95917.22;5093466;28;20227;-81
2024/02/09 03:30:25;;;;;;;6.30;2.60;;;;;;;9.18;100.00;95926.09;5093221;28;20691;-81
2024/02/09 03:32:53;;;;;;;6.63;2.27;;;;;;;9.20;100.00;95911.00;5093224;28;20226;-80
2024/02/09 03:35:19;;;;;;;3.23;1.87;;;;;;;9.25;100.00;95907.88;5093224;28;20272;-79
2024/02/09 03:37:46;;;;;;;5.43;2.20;;;;;;;9.26;100.00;95912.19;5092832;28;20208;-79
2024/02/09 03:40:13;;;;;;;6.43;2.10;;;;;;;9.26;100.00;95906.91;5092836;28;20236;-79
2024/02/09 03:42:41;;;;;;;3.87;1.57;;;;;;;9.26;100.00;95907.75;5093260;28;20229;-79
2024/02/09 03:45:10;;;;;;;4.77;2.20;;;;;;;9.28;100.00;95912.84;5093344;28;20232;-79
2024/02/09 03:47:36;;;;;;;6.30;2.20;;;;;;;9.27;100.00;95904.13;5093449;28;20296;-79
2024/02/09 03:50:04;;;;;;;5.17;1.90;;;;;;;9.28;100.00;95904.94;5093022;28;20213;-79
2024/02/09 03:52:31;;;;;;;4.63;1.70;;;;;;;9.30;100.00;95903.00;5092912;28;20227;-80
2024/02/09 03:54:57;;;;;;;6.97;2.00;;;;;;;9.32;100.00;95906.31;5093394;28;20199;-80
2024/02/09 03:57:26;;;;;;;5.93;1.90;;;;;;;9.34;100.00;95904.31;5094719;28;20202;-80
2024/02/09 03:59:53;;;;;;;3.73;1.37;;;;;;;9.40;100.00;95896.66;5098467;28;20209;-80
2024/02/09 04:02:21;;;;;;;4.23;2.10;;;;;;;9.41;100.00;95900.09;5098184;28;20661;-80
2024/02/09 04:04:49;;;;;;;2.57;1.73;;;;;;;9.40;100.00;95895.81;5097692;28;20214;-80
2024/02/09 04:07:20;;;;;;;3.73;1.93;;;;;;;9.40;100.00;95891.38;5097832;28;20206;-80
2024/02/09 04:09:47;;;;;;;3.07;1.40;;;;;;;9.40;100.00;95890.53;5097992;28;20216;-82
2024/02/09 04:12:14;;;;;;;4.50;1.93;;;;;;;9.41;100.00;95882.47;5097406;28;20247;-80
2024/02/09 04:14:41;;;;;;;4.50;1.80;;;;;;;9.37;100.00;95888.22;5097478;28;20211;-80
2024/02/09 04:17:07;;;;;;;6.87;2.00;;;;;;;9.35;100.00;95890.16;5097389;28;20209;-80
2024/02/09 04:19:38;;;;;;;6.03;1.97;;;;;;;9.39;100.00;95891.53;5097700;28;20331;-80
2024/02/09 04:22:08;;;;;;;4.83;1.97;;;;;;;9.33;100.00;95892.97;5097528;28;20324;-80
2024/02/09 04:24:36;;;;;;;7.37;2.13;;;;;;;9.39;100.00;95881.81;5097655;28;20267;-80
2024/02/09 04:27:04;;;;;;;5.10;2.03;;;;;;;9.34;100.00;95877.97;5097158;28;20675;-80
2024/02/09 04:29:32;;;;;;;5.10;2.20;;;;;;;9.35;100.00;95882.25;5097991;28;20209;-80
2024/02/09 04:31:59;;;;;;;4.90;1.97;;;;;;;9.36;100.00;95882.09;5097281;28;20748;-80
2024/02/09 04:34:26;;;;;;;2.87;1.63;;;;;;;9.34;100.00;95885.88;5097704;28;20219;-80
2024/02/09 04:36:55;;;;;;;6.03;1.43;;;;;;;9.34;100.00;95875.34;5097662;28;20209;-80
2024/02/09 04:39:21;;;;;;;4.73;1.97;;;;;;;9.34;100.00;95884.09;5097131;28;20217;-80
2024/02/09 04:41:50;;;;;;;3.73;1.63;;;;;;;9.34;100.00;95880.59;5097407;28;20252;-80
2024/02/09 04:44:20;;;;;;;3.23;1.60;;;;;;;9.32;100.00;95875.50;5096980;28;20202;-80
2024/02/09 04:46:47;;;;;;;4.80;1.90;;;;;;;9.31;100.00;95878.28;5097299;28;20225;-80
2024/02/09 04:49:14;;;;;;;5.10;1.90;;;;;;;9.39;100.00;95881.81;5097281;28;20701;-80
2024/02/09 04:51:41;;;;;;;4.27;1.40;;;;;;;9.40;100.00;95882.63;5097460;28;20234;-80
2024/02/09 04:54:09;;;;;;;2.50;1.57;;;;;;;9.41;100.00;95879.00;5097348;28;20217;-80
2024/02/09 04:56:36;;;;;;;2.60;1.53;;;;;;;9.42;100.00;95876.22;5097145;28;20206;-80
2024/02/09 04:59:04;;;;;;;4.57;1.80;;;;;;;9.44;100.00;95874.28;5096922;28;20207;-80
2024/02/09 05:01:36;;;;;;;3.97;1.60;;;;;;;9.50;100.00;95867.56;5097229;28;20233;-80
2024/02/09 05:04:02;;;;;;;3.47;1.63;;;;;;;9.54;100.00;95874.19;5097109;28;20299;-80
2024/02/09 05:06:30;;;;;;;4.03;1.60;;;;;;;9.52;100.00;95881.41;5097396;28;20229;-80
2024/02/09 05:08:58;;;;;;;5.40;1.50;;;;;;;9.62;100.00;95867.13;5096594;28;20586;-81
2024/02/09 05:11:29;;;;;;;3.00;1.37;;;;;;;9.65;100.00;95868.63;5107309;28;20230;-81
2024/02/09 05:13:56;;;;;;;1.87;1.20;;;;;;;9.64;100.00;95867.81;5108766;28;20264;-80
2024/02/09 05:16:23;;;;;;;2.57;1.17;;;;;;;9.63;100.00;95853.00;5108182;28;20612;-80
2024/02/09 05:18:50;;;;;;;2.33;1.37;;;;;;;9.65;100.00;95852.81;5105178;28;20203;-80
2024/02/09 05:21:17;;;;;;;1.47;1.10;;;;;;;9.70;100.00;95855.81;5096801;28;20231;-80
2024/02/09 05:23:44;;;;;;;3.50;1.40;;;;;;;9.68;100.00;95850.69;5095352;28;20211;-80
2024/02/09 05:26:12;;;;;;;4.20;1.63;;;;;;;9.71;100.00;95849.56;5094638;28;20631;-80
2024/02/09 05:28:43;;;;;;;1.93;1.10;;;;;;;9.70;100.00;95847.91;5094849;28;20211;-80
2024/02/09 05:31:13;;;;;;;1.67;1.23;;;;;;;9.78;100.00;95846.16;5095260;28;20191;-80
2024/02/09 05:33:39;;;;;;;4.73;1.57;;;;;;;9.74;100.00;95849.25;5095509;28;20220;-80
2024/02/09 05:36:06;;;;;;;1.70;1.27;;;;;;;9.78;100.00;95840.06;5095310;28;20665;-80
2024/02/09 05:38:35;;;;;;;1.90;1.10;;;;;;;9.76;100.00;95840.22;5096299;28;20206;-80
2024/02/09 05:41:02;;;;;;;1.67;1.00;;;;;;;9.78;100.00;95840.06;5096056;28;20210;-80
2024/02/09 05:43:28;;;;;;;2.10;1.43;;;;;;;9.77;100.00;95844.50;5094912;28;20236;-80
2024/02/09 05:45:56;;;;;;;2.77;1.00;;;;;;;9.79;100.00;95836.44;5094182;28;20228;-79
2024/02/09 05:48:23;;;;;;;1.97;1.20;;;;;;;9.81;100.00;95826.53;5093991;28;20210;-79
2024/02/09 05:50:49;;;;;;;3.00;1.20;;;;;;;9.87;100.00;95845.22;5093933;28;20669;-78
2024/02/09 05:53:17;;;;;;;2.13;1.30;;;;;;;9.98;100.00;95825.66;5093795;28;20229;-81
2024/02/09 05:55:45;;;;;;;2.17;0.90;;;;;;;10.00;100.00;95824.50;5094018;28;20260;-80
2024/02/09 05:58:12;;;;;;;1.80;1.00;;;;;;;10.00;100.00;95831.59;5093802;28;20232;-79
2024/02/09 06:00:39;;;;;;;1.97;0.90;;;;;;;10.05;100.00;95837.25;5093770;28;20203;-79
2024/02/09 06:03:08;;;;;;;1.90;0.90;;;;;;;10.02;100.00;95826.97;5093673;28;20226;-79
2024/02/09 06:05:38;;;;;;;1.13;0.87;;;;;;;9.99;100.00;95835.22;5093554;28;20212;-79
2024/02/09 06:08:08;;;;;;;1.43;0.90;;;;;;;10.04;100.00;95825.03;5093908;28;20235;-79
2024/02/09 06:10:34;;;;;;;1.93;1.10;;;;;;;10.07;100.00;95824.72;5094721;28;20213;-79
2024/02/09 06:13:01;;;;;;;2.93;1.20;;;;;;;10.13;100.00;95834.63;5094188;28;20232;-80
2024/02/09 06:15:27;;;;;;;1.73;1.13;;;;;;;10.19;100.00;95826.91;5093747;28;20665;-80
2024/02/09 06:17:54;;;;;;;2.00;0.97;;;;;;;10.21;100.00;95829.41;5093668;28;20302;-80
2024/02/09 06:20:22;;;;;;;1.33;0.97;;;;;;;10.20;100.00;95835.66;5092497;28;20691;-80
2024/02/09 06:22:49;;;;;;;1.23;1.10;;;;;;;10.26;100.00;95829.72;5094709;28;20645;-80
2024/02/09 06:25:15;;;;;;;2.00;0.80;;;;;;;10.34;100.00;95837.69;5094957;28;20219;-81
2024/02/09 06:27:45;;;;;;;0.87;0.87;;;;;;;10.41;100.00;95828.97;5095141;28;20329;-81
2024/02/09 06:30:12;;;;;;;1.17;1.00;;;;;;;10.42;100.00;95829.78;5094338;28;20211;-80
2024/02/09 06:32:39;;;;;;;1.20;0.83;;;;;;;10.42;100.00;95835.91;5094616;28;20793;-81
2024/02/09 06:35:06;;;;;;;1.70;0.97;;;;;;;10.43;100.00;95831.44;5094051;28;20209;-81
2024/02/09 06:37:34;;;;;;;0.87;0.87;;;;;;;10.43;100.00;95836.72;5093668;28;20206;-78
2024/02/09 06:40:01;;;;;;;3.20;0.83;;;;;;;10.46;100.00;95839.06;5093619;28;20308;-80
2024/02/09 06:42:27;;;;;;;1.67;0.97;;;;;;;10.50;100.00;95837.72;5092858;28;20286;-79
2024/02/09 06:44:54;;;;;;;1.27;0.73;;;;;;;10.50;100.00;95838.56;5092819;28;20605;-79
2024/02/09 06:47:22;;;;;;;1.70;0.77;;;;;;;10.49;100.00;95841.38;5092447;28;20311;-79
2024/02/09 06:49:49;;;;;;;2.37;0.80;;;;;;;10.49;100.00;95838.72;5092936;28;20206;-80
2024/02/09 06:52:15;;;;;;;0.97;0.77;;;;;;;10.58;100.00;95838.59;5093092;28;20230;-80
2024/02/09 06:54:44;;;;;;;1.33;1.13;;;;;;;10.55;100.00;95838.09;5093896;28;20207;-80
2024/02/09 06:57:11;;;;;;;1.50;0.87;;;;;;;10.59;100.00;95842.06;5093588;28;20211;-80
2024/02/09 06:59:38;;;;;;;2.33;1.27;;;;;;;10.57;100.00;95844.03;5093410;28;20214;-80
2024/02/09 07:02:06;;;;;;;3.50;0.97;;;;;;;10.65;100.00;95851.97;5093728;28;20236;-80
2024/02/09 07:04:33;;;;;;;2.20;1.00;;;;;;;10.63;100.00;95843.38;5093591;28;20208;-80
2024/02/09 07:07:05;;;;;;;2.47;1.20;;;;;;;10.68;100.00;95856.94;5093047;28;20285;-79
2024/02/09 07:09:33;;;;;;;1.43;1.00;;;;;;;10.64;100.00;95850.34;5092834;28;20209;-80
2024/02/09 07:12:03;;;;;;;2.90;1.00;;;;;;;10.60;100.00;95859.56;5092662;28;20224;-80
2024/02/09 07:14:30;;;;;;;1.43;0.80;;;;;;;10.66;100.00;95862.41;5092622;28;20203;-79
2024/02/09 07:16:57;;;;;;;2.30;0.77;;;;;;;10.67;100.00;95866.69;5092588;28;20213;-80
2024/02/09 07:19:23;;;;;;;1.40;0.83;;;;;;;10.59;100.00;95855.28;5093264;28;20209;-80
2024/02/09 07:21:50;;;;;;;1.17;0.90;;;;;;;10.56;100.00;95855.56;5093157;28;20233;-80
2024/02/09 07:24:17;;;;;;;3.20;1.03;;;;;;;10.57;100.00;95860.72;5092892;28;20219;-80
2024/02/09 07:26:44;;;;;;;1.23;0.60;;;;;;;10.56;100.00;95860.84;5092784;28;20234;-80
2024/02/09 07:29:12;;;;;;;1.10;0.80;;;;;;;10.57;100.00;95867.78;5092463;28;20205;-79
2024/02/09 07:31:38;;;;;;;2.53;1.10;;;;;;;10.59;100.00;95858.72;5092125;28;20233;-79
2024/02/09 07:34:06;;;;;;;2.40;1.07;;;;;;;10.60;100.00;95855.13;5092463;28;20294;-79
2024/02/09 07:36:34;;;;;;;2.40;1.07;;;;;;;10.61;100.00;95855.94;5092737;28;20204;-79
2024/02/09 07:39:01;;;;;;;3.13;1.00;;;;;;;10.63;100.00;95853.94;5092504;28;20214;-79
2024/02/09 07:41:30;;;;;;;1.73;0.80;;;;;;;10.62;100.00;95862.84;5093112;28;20782;-79
2024/02/09 07:43:58;;;;;;;1.30;0.90;;;;;;;10.61;100.00;95850.66;5093182;28;20261;-79
2024/02/09 07:46:27;;;;;;;1.23;1.00;;;;;;;10.63;100.00;95853.94;5092937;28;20721;-79
2024/02/09 07:48:55;;;;;;;1.47;1.10;;;;;;;10.65;100.00;95846.69;5092531;28;20205;-79
2024/02/09 07:51:21;;;;;;;2.70;1.00;;;;;;;10.61;100.00;95850.66;5092541;28;20256;-80
2024/02/09 07:53:52;;;;;;;1.63;0.90;;;;;;;10.62;100.00;95841.72;5092664;28;20206;-79
2024/02/09 07:56:19;;;;;;;1.30;0.83;;;;;;;10.65;100.00;95841.41;5093243;28;20239;-79
2024/02/09 07:58:45;;;;;;;2.37;1.13;;;;;;;10.68;100.00;95841.91;5092971;28;20212;-79
2024/02/09 08:01:12;;;;;;;2.30;0.90;;;;;;;10.72;100.00;95843.25;5093294;28;20216;-79
2024/02/09 08:03:40;;;;;;;1.47;0.80;;;;;;;10.69;100.00;95840.09;5094846;28;20217;-80
2024/02/09 08:06:06;;;;;;;1.60;0.83;;;;;;;10.72;100.00;95837.13;5095577;28;20561;-80
2024/02/09 08:08:33;;;;;;;1.33;0.90;;;;;;;10.75;100.00;95842.06;5095211;28;20215;-79
2024/02/09 08:11:00;;;;;;;1.23;0.70;;;;;;;10.77;100.00;95845.41;5092432;28;20583;-77
2024/02/09 08:13:26;;;;;;;1.87;0.80;;;;;;;10.80;100.00;95855.63;5093040;28;20229;-77
2024/02/09 08:15:55;;;;;;;2.03;0.97;;;;;;;10.86;100.00;95849.69;5092641;28;20211;-79
2024/02/09 08:18:21;;;;;;;1.93;0.83;;;;;;;10.92;100.00;95854.34;5092781;28;20207;-79
2024/02/09 08:20:49;;;;;;;1.47;0.90;;;;;;;10.95;100.00;95854.84;5093044;28;20259;-80
2024/02/09 08:23:16;;;;;;;1.80;0.90;;;;;;;11.02;100.00;95857.66;5093116;28;20231;-79
2024/02/09 08:25:42;;;;;;;1.47;1.00;;;;;;;11.07;100.00;95852.72;5092650;28;20653;-79
2024/02/09 08:28:09;;;;;;;1.60;1.00;;;;;;;11.07;100.00;95842.94;5092797;28;20255;-79
2024/02/09 08:30:35;;;;;;;0.97;0.80;;;;;;;11.12;100.00;95845.94;5092200;28;20217;-80
2024/02/09 08:33:02;;;;;;;1.47;0.77;;;;;;;11.14;100.00;95851.06;5092441;28;20234;-79
2024/02/09 08:35:28;;;;;;;1.87;0.87;;;;;;;11.18;100.00;95847.13;5092239;28;20682;-79
2024/02/09 08:37:56;;;;;;;1.50;0.90;;;;;;;11.20;100.00;95847.75;5090674;28;20204;-78
2024/02/09 08:40:23;;;;;;;1.73;0.80;;;;;;;11.24;100.00;95849.91;5091669;28;20539;-80
2024/02/09 08:42:50;;;;;;;1.20;0.90;;;;;;;11.30;100.00;95858.97;5091787;28;20238;-81
2024/02/09 08:45:16;;;;;;;1.57;0.80;;;;;;;11.33;100.00;95853.38;5095706;28;20206;-79
2024/02/09 08:47:43;;;;;;;1.03;0.80;;;;;;;11.39;100.00;95848.28;5096242;28;20226;-80
2024/02/09 08:50:09;;;;;;;1.10;0.83;;;;;;;11.42;100.00;95857.66;5096791;28;20256;-79
2024/02/09 08:52:36;;;;;;;2.77;1.10;;;;;;;11.48;100.00;95849.06;5096673;28;20232;-79
2024/02/09 08:55:04;;;;;;;1.70;0.90;;;;;;;11.58;100.00;95849.72;5096800;28;20309;-80
2024/02/09 08:57:31;;;;;;;1.40;0.80;;;;;;;11.62;100.00;95848.44;5096396;28;20208;-80
2024/02/09 08:59:57;;;;;;;1.77;1.00;;;;;;;11.63;100.00;95844.78;5096565;28;20206;-80
2024/02/09 09:02:24;;;;;;;1.70;1.20;;;;;;;11.64;100.00;95841.16;5096186;28;20308;-80
2024/02/09 09:04:50;;;;;;;3.60;1.07;;;;;;;11.67;100.00;95848.78;5096238;28;20203;-79
2024/02/09 09:07:17;;;;;;;2.77;1.00;;;;;;;11.65;100.00;95838.34;5095596;28;20237;-82
2024/02/09 09:09:43;;;;;;;2.13;1.00;;;;;;;11.68;100.00;95840.63;5096164;28;20214;-80
2024/02/09 09:12:11;;;;;;;2.10;1.10;;;;;;;11.74;100.00;95831.22;5096373;28;20230;-80
2024/02/09 09:14:38;;;;;;;1.70;1.00;;;;;;;11.81;100.00;95842.78;5096092;28;20208;-79
2024/02/09 09:17:05;;;;;;;1.07;0.97;;;;;;;11.87;100.00;95839.47;5095996;28;20565;-79
2024/02/09 09:19:31;;;;;;;1.50;1.00;;;;;;;11.96;100.00;95830.47;5096083;28;20238;-79
2024/02/09 09:21:58;;;;;;;1.20;0.93;;;;;;;12.03;100.00;95831.44;5095139;28;20317;-80
2024/02/09 09:24:24;;;;;;;3.03;1.10;;;;;;;12.17;100.00;95833.41;5095630;28;20202;-79
2024/02/09 09:26:51;;;;;;;0.80;0.80;;;;;;;12.25;100.00;95841.31;5095309;28;20241;-79
2024/02/09 09:29:19;;;;;;;1.47;0.90;;;;;;;12.35;100.00;95816.28;5095402;28;20207;-80
2024/02/09 09:31:47;;;;;;;0.77;0.77;;;;;;;12.42;100.00;95821.72;5095325;28;20655;-81
2024/02/09 09:34:13;;;;;;;1.43;1.10;;;;;;;12.49;100.00;95812.06;5096061;28;20214;-81
2024/02/09 09:36:40;;;;;;;2.37;0.90;;;;;;;12.61;100.00;95810.69;5095757;28;20230;-81
2024/02/09 09:39:06;;;;;;;1.58;0.98;;;;;;;12.64;100.00;95810.31;5095382;28;20440;-80
2024/02/09 09:41:35;;;;;;;2.03;1.00;;;;;;;12.64;100.00;95805.03;5094823;28;20238;-80
2024/02/09 09:44:02;;;;;;;1.73;1.17;;;;;;;12.64;100.00;95815.63;5094888;28;20215;-80
2024/02/09 09:46:31;;;;;;;1.20;0.73;;;;;;;12.64;100.00;95811.16;5095894;28;20206;-81
2024/02/09 09:48:58;;;;;;;2.17;1.00;;;;;;;12.65;100.00;95812.81;5096040;28;20206;-80
2024/02/09 09:51:30;;;;;;;3.57;1.00;;;;;;;12.75;100.00;95812.56;5095298;28;20242;-80
2024/02/09 09:54:00;;;;;;;1.93;1.13;;;;;;;12.79;100.00;95805.94;5097789;28;20211;-80
2024/02/09 09:56:28;;;;;;;2.50;1.00;;;;;;;12.86;99.73;95807.72;5096771;28;20209;-80
2024/02/09 09:58:54;;;;;;;2.07;0.90;;;;;;;12.86;97.08;95783.03;5096575;28;20211;-80
2024/02/09 10:01:21;;;;;;;1.77;0.97;;;;;;;12.94;96.42;95780.31;5098618;28;20230;-80
2024/02/09 10:03:49;;;;;;;2.90;1.37;;;;;;;12.97;96.63;95782.66;5097032;28;20206;-80
2024/02/09 10:06:16;;;;;;;1.67;0.90;;;;;;;13.00;96.96;95791.06;5096263;28;20705;-81
2024/02/09 10:08:43;;;;;;;2.13;0.93;;;;;;;13.02;97.28;95782.94;5095206;28;20255;-81
2024/02/09 10:11:10;;;;;;;1.93;1.30;;;;;;;13.05;96.60;95771.97;5095227;28;20215;-80
2024/02/09 10:13:37;;;;;;;2.00;1.10;;;;;;;13.17;95.88;95771.38;5095292;28;20210;-81
2024/02/09 10:16:04;;;;;;;2.03;0.90;;;;;;;13.26;93.90;95770.28;5095545;28;20211;-80
2024/02/09 10:18:33;;;;;;;2.37;1.00;;;;;;;13.26;92.97;95764.19;5095085;28;20206;-81
2024/02/09 10:21:02;;;;;;;2.70;1.30;;;;;;;13.32;94.03;95764.28;5095117;28;20216;-81
2024/02/09 10:23:30;;;;;;;2.67;1.40;;;;;;;13.32;94.15;95777.53;5094947;28;20207;-81
2024/02/09 10:26:04;;;;;;;2.27;0.97;;;;;;;13.33;94.00;95776.53;5094992;28;20594;-81
2024/02/09 10:28:31;;;;;;;1.93;1.00;;;;;;;13.37;92.69;95761.06;5094473;28;20322;-81
2024/02/09 10:30:59;;;;;;;1.27;0.90;;;;;;;13.31;92.02;95756.47;5094460;28;20210;-80
2024/02/09 10:33:26;;;;;;;2.63;1.10;;;;;;;13.31;92.11;95761.78;5093668;28;20207;-77
2024/02/09 10:35:55;;;;;;;2.43;0.90;;;;;;;13.26;91.27;95759.69;5092722;28;20213;-77
2024/02/09 10:38:23;;;;;;;2.30;1.20;;;;;;;13.20;91.28;95765.69;5093309;28;20210;-81
2024/02/09 10:40:54;;;;;;;3.80;1.00;;;;;;;13.27;90.27;95752.56;5094406;28;20272;-81
2024/02/09 10:43:23;;;;;;;1.70;0.80;;;;;;;13.20;91.77;95756.94;5094216;28;20262;-81
2024/02/09 10:45:50;;;;;;;1.63;1.10;;;;;;;13.17;92.43;95765.25;5094229;28;20218;-81
2024/02/09 10:48:21;;;;;;;2.13;1.10;;;;;;;13.15;93.35;95769.91;5093660;28;20224;-81
2024/02/09 10:50:49;;;;;;;1.90;1.20;;;;;;;13.20;91.10;95751.63;5094088;28;20620;-81
2024/02/09 10:53:23;;;;;;;2.13;1.10;;;;;;;13.22;90.66;95747.81;5094333;28;20247;-82
2024/02/09 10:56:02;;;;;;;2.00;0.97;;;;;;;13.26;89.92;95745.63;5096140;28;20210;-82
2024/02/09 10:58:31;;;;;;;2.43;1.00;;;;;;;13.26;90.69;95748.28;5096081;28;20264;-83
2024/02/09 11:00:59;;;;;;;2.53;1.13;;;;;;;13.26;90.06;95737.66;5096920;28;20214;-82
2024/02/09 11:03:26;;;;;;;1.67;1.00;;;;;;;13.30;88.66;95723.84;5096548;28;20207;-83
2024/02/09 11:05:53;;;;;;;1.70;1.05;;;;;;;13.33;90.08;95735.94;5093582;28;20432;-81
2024/02/09 11:08:20;;;;;;;1.57;1.03;;;;;;;13.37;90.76;95723.94;5094079;28;20231;-81
2024/02/09 11:10:57;;;;;;;2.30;0.83;;;;;;;13.38;91.93;95731.72;5095219;28;20211;-81
2024/02/09 11:13:24;;;;;;;1.60;1.10;;;;;;;13.43;90.59;95726.69;5094615;28;20217;-81
2024/02/09 11:15:55;;;;;;;1.57;1.00;;;;;;;13.53;88.90;95713.16;5094707;28;20294;-82
2024/02/09 11:18:21;;;;;;;3.50;1.13;;;;;;;13.64;89.11;95716.16;5097819;28;20284;-82
2024/02/09 11:20:48;;;;;;;1.63;1.33;;;;;;;13.73;86.58;95698.31;5095508;28;20528;-81
2024/02/09 11:23:14;;;;;;;2.60;1.37;;;;;;;13.67;86.38;95704.38;5095503;28;20714;-82
2024/02/09 11:25:46;;;;;;;2.00;0.97;;;;;;;13.61;87.35;95705.09;5094162;28;20210;-78
2024/02/09 11:28:14;;;;;;;2.07;1.20;;;;;;;13.53;86.81;95700.72;5092443;28;20235;-79
2024/02/09 11:30:41;;;;;;;2.30;1.20;;;;;;;13.53;86.39;95686.63;5096709;28;20226;-80
2024/02/09 11:33:10;;;;;;;1.47;0.97;;;;;;;13.54;86.46;95682.97;5095373;28;20240;-79
2024/02/09 11:35:37;;;;;;;1.93;1.03;;;;;;;13.50;86.60;95689.66;5095715;28;20583;-82
2024/02/09 11:38:04;;;;;;;2.53;1.10;;;;;;;13.49;86.50;95690.63;5095295;28;20221;-81
2024/02/09 11:40:31;;;;;;;3.30;1.00;;;;;;;13.54;86.08;95682.97;5093356;28;20225;-80
2024/02/09 11:42:57;;;;;;;1.43;1.00;;;;;;;13.50;86.61;95692.31;5093008;28;20233;-80
2024/02/09 11:45:25;;;;;;;2.60;0.80;;;;;;;13.43;87.46;95692.22;5093238;28;20210;-80
2024/02/09 11:47:52;;;;;;;2.50;1.00;;;;;;;13.37;87.86;95692.94;5093454;28;20226;-79
2024/02/09 11:50:20;;;;;;;1.57;0.87;;;;;;;13.35;88.04;95696.78;5093975;28;20214;-80
2024/02/09 11:52:47;;;;;;;2.80;1.00;;;;;;;13.25;88.45;95688.25;5093322;28;20235;-80
2024/02/09 11:55:13;;;;;;;2.17;1.00;;;;;;;13.27;87.84;95688.91;5093181;28;20211;-79
2024/02/09 11:57:41;;;;;;;1.67;1.07;;;;;;;13.24;88.85;95692.75;5093350;28;20229;-79
2024/02/09 12:00:09;;;;;;;1.57;0.90;;;;;;;13.22;89.21;95694.75;5094942;28;20246;-80
2024/02/09 12:02:38;;;;;;;2.77;1.00;;;;;;;13.27;87.74;95686.25;5095107;28;20230;-79
2024/02/09 12:05:07;;;;;;;3.03;0.90;;;;;;;13.22;87.95;95670.91;5097622;28;20214;-80
2024/02/09 12:07:34;;;;;;;2.50;1.00;;;;;;;13.22;88.24;95684.16;5092762;28;20251;-79
2024/02/09 12:10:04;;;;;;;3.47;1.40;;;;;;;13.17;88.08;95686.53;5094334;28;20218;-79
2024/02/09 12:12:30;;;;;;;1.30;0.90;;;;;;;13.15;87.93;95677.09;5093930;28;20227;-81
2024/02/09 12:14:57;;;;;;;1.43;1.00;;;;;;;13.12;88.70;95680.09;5093560;28;20214;-80
2024/02/09 12:17:24;;;;;;;2.20;1.20;;;;;;;13.05;89.37;95679.16;5094182;28;20216;-80
2024/02/09 12:19:52;;;;;;;1.43;1.10;;;;;;;13.03;89.87;95678.53;5097847;28;20272;-80
2024/02/09 12:22:19;;;;;;;1.40;1.03;;;;;;;13.00;90.01;95692.97;5097543;28;20231;-80
2024/02/09 12:24:47;;;;;;;2.93;1.00;;;;;;;12.97;89.58;95684.56;5097210;28;20203;-80
2024/02/09 12:27:15;;;;;;;2.10;1.33;;;;;;;12.98;90.51;95696.81;5097503;28;20211;-80
2024/02/09 12:29:41;;;;;;;1.47;0.80;;;;;;;13.00;89.88;95684.19;5098081;28;20304;-80
2024/02/09 12:32:09;;;;;;;1.83;1.00;;;;;;;12.97;89.96;95692.50;5099421;28;20241;-80
2024/02/09 12:34:43;;;;;;;2.63;1.37;;;;;;;13.03;89.17;95674.03;5099710;28;20209;-80
2024/02/09 12:37:15;;;;;;;2.70;1.10;;;;;;;13.07;88.65;95671.88;5099330;28;20203;-80
2024/02/09 12:39:42;;;;;;;2.50;0.93;;;;;;;12.99;89.63;95677.25;5097253;28;20218;-81
2024/02/09 12:42:09;;;;;;;2.87;1.30;;;;;;;12.81;94.54;95689.94;5097412;28;20567;-80
2024/02/09 12:44:38;;;;;;;2.70;0.83;;;;;;;12.68;97.22;95695.03;5096938;28;20207;-80
2024/02/09 12:47:07;;;;;;;3.33;1.10;;;;;;;12.55;99.15;95700.09;5096370;28;20218;-80
2024/02/09 12:49:34;;;;;;;2.60;1.07;;;;;;;12.43;100.00;95702.34;5096322;28;20696;-81
2024/02/09 12:52:01;;;;;;;1.10;0.80;;;;;;;12.35;100.00;95704.22;5096583;28;20237;-81
2024/02/09 12:54:29;;;;;;;2.10;1.20;;;;;;;12.31;100.00;95705.56;5097280;28;20213;-81
2024/02/09 12:56:55;;;;;;;4.53;1.73;;;;;;;12.22;100.00;95699.50;5100042;28;20221;-81
2024/02/09 12:59:23;;;;;;;1.53;0.90;;;;;;;12.17;100.00;95704.47;5099371;28;20210;-81
2024/02/09 13:01:49;;;;;;;2.43;1.33;;;;;;;12.11;100.00;95709.66;5098049;28;20371;-81
2024/02/09 13:04:16;;;;;;;3.20;1.30;;;;;;;12.11;100.00;95704.38;5098800;28;20217;-81
2024/02/09 13:06:42;;;;;;;1.83;1.00;;;;;;;12.05;100.00;95703.22;5098153;28;20206;-80
2024/02/09 13:09:10;;;;;;;2.83;1.50;;;;;;;12.02;100.00;95697.44;5097592;28;20236;-80
2024/02/09 13:11:38;;;;;;;2.87;1.33;;;;;;;11.93;100.00;95698.50;5097182;28;20233;-80
2024/02/09 13:14:05;;;;;;;1.90;1.27;;;;;;;11.89;100.00;95692.75;5097113;28;20566;-81
2024/02/09 13:16:31;;;;;;;2.07;1.30;;;;;;;11.81;100.00;95694.59;5097829;28;20225;-81
2024/02/09 13:18:58;;;;;;;2.27;1.43;;;;;;;11.76;100.00;95691.63;5096689;28;20203;-81